Home > Products > Valid Products > MTR

000
SAZS31 NSTU 311658
MTRPPG
METAR NSTU 311654Z 11012KT 10SM SCT016 BKN040 OVC080 25/23 A2995 RMK
 SLP144 T02490228=




000
SAZS31 NSTU 311556
MTRPPG
METAR NSTU 311552Z 12014KT 10SM -SHRA SCT014TCU BKN035 OVC070 25/23
A2995 RMK SLP142 T02450229=




000
SAZS31 NSTU 311456
MTRPPG
METAR NSTU 311453Z 13014KT 7SM -SHRA SCT014TCU BKN035 OVC070 24/23
A2995 RMK TCU ALQDS SLP142 60046 8/87/ T02410230 56015=




000
SAZS31 NSTU 311355
MTRPPG
METAR NSTU 311351Z 11006KT 3SM -SHRA BKN012TCU OVC040 23/23 A2995
RMK TCU ALQDS SLP142 T02340226=




000
SAZS31 NSTU 311303
MTRPPG
METAR NSTU 311251Z 03006KT 1SM SHRA BKN012TCU OVC035 23/22 A2997 RMK
 TCU ALQDS SLP151 T02280219=




000
SAZS31 NSTU 311156
MTRPPG
METAR NSTU 311150Z 09016KT 1SM SHRA BKN012TCU OVC035 24/23 A2999 RMK
 TCU ALQDS SLP157 60243 70336 8/8// T02380232 10238 20223 50000=




000
SAZS31 NSTU 311053
MTRPPG
METAR NSTU 311050Z 15008KT 3SM SHRA BKN013TCU OVC035 24/23 A2998 RMK
 TCU ALQDS SLP154 T02370232 402620227=




000
SAZS31 NSTU 310955
MTRPPG
METAR NSTU 310951Z 00000KT 2SM SHRA BKN013TCU OVC035 23/23 A2999 RMK
 TCU ALQDS SLP157 T02330227=




000
SAZS31 NSTU 310901
MTRPPG
METAR NSTU 310857Z 30005KT 5SM SHRA BKN013TCU OVC035 23/22 A2999 RMK
TCU ALQDS SLP157 60128 8/8// T02290223 52014=




000
SAZS31 NSTU 310755
MTRPPG
METAR NSTU 310751Z 00000KT 6SM SHRA BKN013TCU OVC035 22/22 A2998 RMK
TCU ALQDS SLP154 T02230216=




000
SAZS31 NSTU 310656
MTRPPG
METAR NSTU 310652Z 28004KT 7SM -SHRA SCT015TCU OVC040 23/22 A2996
RMK TCU ALQDS SLP147 T02260216=




000
SAZS31 NSTU 310558
MTRPPG
METAR NSTU 310550Z 08004KT 6SM -SHRA SCT014TCU OVC040 23/21 A2995
RMK SHRAB25 TCU ALQDS SLP144 60036 8/8// T02270214 10254 20227 52012=




000
SAZS31 NSTU 310459
MTRPPG
METAR NSTU 310455Z 00000KT 11SM VCSH SCT015TCU BKN040 OVC090 25/23
A2992 RMK SHRAE30 VCSH E TCU N-E-S-SW SLP134 T02540225=




000
SAZS31 NSTU 310358
MTRPPG
METAR NSTU 310353Z 00000KT 11SM -SHRA SCT015TCU BKN040 OVC100 24/23
A2992 RMK TCU N AND SE SLP130 T02440230=




000
SAZS31 NSTU 310358
MTRPPG
METAR NSTU 310353Z 00000KT 11SM -SHRA SCT015TCU BKN040 OVC100 24/23
A2992 RMK TCU N AND SE SLP130 T02440230=




000
SAZS31 NSTU 310256
MTRPPG
METAR NSTU 310250Z 00000KT 7SM -SHRA BKN013TCU OVC038 24/23 A2992
RMK TCU ALQDS SLP132 60012 8/8// T02380226 56012=




000
SAZS31 NSTU 310154
MTRPPG
METAR NSTU 310151Z 08009KT 7SM -SHRA BKN013TCU BKN038 OVC070 24/22
A2993 RMK TCU ALQDS SLP135 T02380222=




000
SAZS31 NSTU 310110
MTRPPG
METAR NSTU 310051Z 08015KT 10SM -SHRA SCT014 BKN044 OVC080 25/23
A2994 RMK SLP137 T02480227=




000
SAZS31 NSTU 310000
MTRPPG
METAR NSTU 302350Z 00000KT 11SM -SHRA SCT014 BKN044 OVC090 25/23
A2995 RMK SHRAB30 SLP144 60006 8/87/ T02520234 10262 20240 56012=




000
SAZS31 NSTU 302306
MTRPPG
METAR NSTU 302250Z 10013KT 12SM SCT014 BKN044 OVC090 26/24 A2996 RMK
 SHRAE44 SLP147 T02620239=




000
SAZS31 NSTU 302306
MTRPPG
METAR NSTU 302151Z 11011KT 10SM -SHRA SCT016 BKN040 OVC090 25/24
A2998 RMK SHRAB16 SLP154 T02540236=




000
SAZS31 NSTU 302100
MTRPPG
METAR NSTU 302053Z 10009KT 12SM SCT020 BKN050 OVC100 26/23 A2999 RMK
 SLP156 60000 8/82/ T02560229 51017=




000
SAZS31 NSTU 302059
MTRPPG
METAR NSTU 301951Z 11012KT 12SM SCT017 BKN050 OVC090 25/22 A2998 RMK
 SHRAE15 SLP152 T02500224=




000
SAZS31 NSTU 301859
MTRPPG
METAR NSTU 301854Z 12017KT 12SM -SHRA BKN017TCU OVC050 25/23 A2996
RMK SLP147 T02470230=




000
SAZS31 NSTU 301759
MTRPPG
METAR NSTU 301750Z 11012KT 11SM -SHRA BKN017TCU OVC050 24/23 A2994
RMK TCU ALQDS SLP139 60051 8/2// T02400228 10249 20235 52010=




000
SAZS31 NSTU 301700
MTRPPG
METAR NSTU 301654Z 11012KT 10SM -SHRA BKN014TCU OVC040 24/23 A2993
RMK TCU ALQDS SLP135 T02350225=




000
SAZS31 NSTU 301555
MTRPPG
METAR NSTU 301550Z 09015KT 10SM +SHRA BKN014TCU OVC040 24/23 A2992
RMK SHRAB10 TCU ALQDS SLP132 T02410231=




000
SAZS31 NSTU 301458
MTRPPG
METAR NSTU 301453Z 12016KT 10SM SCT018TCU BKN040 OVC100 25/23 A2991
RMK SHRAE30 TCU ALQDS SLP129 60016 8/82/ T02490230 57005=




000
SAZS31 NSTU 301355
MTRPPG
METAR NSTU 301351Z 09015KT 8SM -SHRA BKN014TCU OVC040 25/23 A2991
RMK TCU ALQDS SLP130 T02470231=




000
SAZS31 NSTU 301300
MTRPPG
METAR NSTU 301258Z 10018KT 8SM SHRA BKN014TCU OVC040 24/23 A2992 RMK
TCU ALQDS SLP134 T02420232=




000
SAZS31 NSTU 301203
MTRPPG
METAR NSTU 301157Z 09016KT 8SM SHRA BKN014TCU OVC040 24/23 A2992 RMK
SLP134 60122 70610 8/2// T02410232 10245 20234 52002=




000
SAZS31 NSTU 301056
MTRPPG
METAR NSTU 301050Z 10017G21KT 8SM SHRA SCT014TCU OVC035 24/23 A2994
RMK TCU ALQDS SLP137 T02410233 402680234=




000
SAZS31 NSTU 300955
MTRPPG
METAR NSTU 300950Z 05006KT 8SM SHRA SCT014TCU OVC035 24/23 A2994 RMK
TCU ALQDS SLP139 T02420229=




000
SAZS31 NSTU 300855
MTRPPG
METAR NSTU 300850Z 36005KT 6SM SHRA SCT014TCU OVC035 24/23 A2992 RMK
TCU ALQDS 60084 8/8// T02390231 56003=




000
SAZS31 NSTU 300757
MTRPPG
METAR NSTU 300752Z 12017KT 4SM +SHRA BKN012TCU OVC030 24/24 A2994
RMK TCU ALQDS SLP139 T02430235=




000
SAZS31 NSTU 300658
MTRPPG
METAR NSTU 300652Z 12018G24KT 5SM SHRA SCT012TCU OVC030 25/24 A2993
RMK TCU ALQDS SLP137 T02450236=




000
SAZS31 NSTU 300600
MTRPPG
METAR NSTU 300550Z 01003KT 5SM SHRA SCT013TCU BKN030 OVC080 23/23
A2993 RMK TCU ALQDS SLP135 60224 8/82/ T02340225 10250 20234 52014=




000
SAZS31 NSTU 300456
MTRPPG
METAR NSTU 300452Z 07008KT 7SM SHRA SCT013 BKN036 OVC070 24/23 A2991
 RMK SLP129 T02370228=




000
SAZS31 NSTU 300356
MTRPPG
METAR NSTU 300351Z 08013KT 2SM SHRA OVC013 24/23 A2990 RMK SLP124
T02380229=




000
SAZS31 NSTU 300254
MTRPPG
METAR NSTU 300250Z 13014G23KT 1SM +SHRA OVC013 24/24 A2989 RMK
SLP122 60168 8/1// T02440235 56010=




000
SAZS31 NSTU 300156
MTRPPG
METAR NSTU 300150Z 15011KT 4SM SHRA SCT013 BKN034 OVC070 25/23 A2989
 RMK SLP124 T02450234=




000
SAZS31 NSTU 300058
MTRPPG
METAR NSTU 300053Z 15019KT 4SM SHRA SCT013 BKN034 OVC070 25/24 A2990
 RMK SLP125 T02500237=




000
SAZS31 NSTU 292356
MTRPPG
METAR NSTU 292350Z 14021G28KT 4SM SHRA SCT013TCU BKN036 OVC070 25/24
 A2992 RMK TCU ALQDS SLP132 60133 8/87/ T02500238 10260 20250 56015=




000
SAZS31 NSTU 292257
MTRPPG
METAR NSTU 292251Z 14022G28KT 5SM SHRA SCT013TCU BKN036 OVC070 25/24
 A2992 RMK TCU ALQDS SLP134 T02500239=




000
SAZS31 NSTU 292156
MTRPPG
METAR NSTU 292151Z 14016KT 10SM SHRA SCT013TCU BKN036 OVC080 26/24
A2994 RMK TCU OHD SLP141 T02560242=




000
SAZS31 NSTU 292058
MTRPPG
METAR NSTU 292050Z 16013KT 4SM -SHRA SCT013TCU BKN036 OVC080 26/24
A2996 RMK SHRAB40 TCU ALQDS SLP147 60005 8/87/ T02590240 51017=




000
SAZS31 NSTU 291956
MTRPPG
METAR NSTU 291951Z 14013KT 12SM FEW010 SCT014 BKN038 BKN090 26/24
A2996 RMK SHRAE23 SLP146 T02600239=




000
SAZS31 NSTU 291855
MTRPPG
METAR NSTU 291850Z 15018KT 12SM -SHRA FEW010 SCT016 BKN038 BKN090
25/24 A2993 RMK SLP137 T02530237=




000
SAZS31 NSTU 291801
MTRPPG
METAR NSTU 291753Z 14019KT 11SM SHRA SCT014TCU BKN040 OVC080 26/24
A2991 RMK TCU ALQDS SLP130 60131 8/42/ T02550239 10255 20241 52003=




000
SAZS31 NSTU 291701
MTRPPG
METAR NSTU 291658Z 16007KT 10SM +SHRA SCT014TCU BKN040 OVC080 25/24
A2991 RMK TCU ALQDS SLP129 T02500236=




000
SAZS31 NSTU 291609
MTRPPG
METAR NSTU 291550Z 18011KT 10SM SHRA SCT017TCU BKN040 OVC100 26/24
A2990 RMK SHRAB01 TCU ALQDS SLP125 T02550240=




000
SAZS31 NSTU 291516
MTRPPG
METAR NSTU 291450Z 15017KT 10SM SCT020 BKN040 OVC100 25/24 A2990 RMK
SLP127 8/41/ T02510238 57008=




000
SAZS31 NSTU 291355
MTRPPG
METAR NSTU 291351Z 32003KT 10SM SCT022 SCT040 BKN100 24/23 A2990 RMK
SLP125 T02410228=




000
SAZS31 NSTU 291254
MTRPPG
METAR NSTU 291251Z 32003KT 10SM SCT022 BKN040 BKN100 24/23 A2991 RMK
SLP130 T02430229=




000
SAZS31 NSTU 291159
MTRPPG
METAR NSTU 291153Z 00000KT 10SM SCT022 BKN040 25/23 A2993 RMK SLP135
70008 8/400 T02460229 10268 20246 57003=




000
SAZS31 NSTU 291054
MTRPPG
METAR NSTU 291051Z 32003KT 10SM SCT022 BKN040 25/23 A2993 RMK SLP137
T02510232 402930248=




000
SAZS31 NSTU 290955
MTRPPG
METAR NSTU 290951Z 00000KT 10SM SCT022 BKN040 BKN100 25/23 A2993 RMK
SLP137 T02530232=




000
SAZS31 NSTU 290859
MTRPPG
METAR NSTU 290855Z 30003KT 10SM SCT022 BKN040 25/23 A2994 RMK SLP139
8/800 T02510230 52012=




000
SAZS31 NSTU 290803
MTRPPG
METAR NSTU 290758Z 30003KT 10SM FEW022 SCT040 25/23 A2993 RMK SLP135
T02460227=




000
SAZS31 NSTU 290700
MTRPPG
METAR NSTU 290655Z 00000KT 10SM SKC 25/23 A2991 RMK SLP130 T02530227=




000
SAZS31 NSTU 290604
MTRPPG
METAR NSTU 290555Z 00000KT 10SM SCT040 BKN100 27/23 A2990 RMK SLP127
8/570 T02680226 10293 20268 52015=




000
SAZS31 NSTU 290454
MTRPPG
METAR NSTU 290450Z 08002KT 12SM SCT040 SCT100 BKN240 28/22 A2989 RMK
SLP124 T02780220=




000
SAZS31 NSTU 290353
MTRPPG
METAR NSTU 290350Z 05005KT 12SM FEW040 SCT090 BKN240 28/22 A2987 RMK
SLP115 T02840224=




000
SAZS31 NSTU 290255
MTRPPG
METAR NSTU 290251Z 06006KT 12SM FEW040 SCT090 BKN240 29/24 A2986 RMK
SLP112 8/571 T02930235 56015=




000
SAZS31 NSTU 290155
MTRPPG
METAR NSTU 290150Z 04007KT 12SM SCT023 SCT055 BKN100 29/23 A2987 RMK
 SLP115 T02930232=




000
SAZS31 NSTU 290054
MTRPPG
METAR NSTU 290050Z 06007KT 12SM SCT020 BKN055 BKN100 28/23 A2988 RMK
 SLP120 T02820231=




000
SAZS31 NSTU 282357
MTRPPG
METAR NSTU 282350Z 06008KT 12SM -RA SCT025 SCT055 BKN100 28/24 A2991
 RMK RAB47 SLP127 60000 8/870 T02790236 10282 20248 56019=




000
SAZS31 NSTU 282254
MTRPPG
METAR NSTU 282250Z 05006KT 12SM FEW025 SCT055 BKN100 28/23 A2992 RMK
 SLP134 T02820230=




000
SAZS31 NSTU 282158
MTRPPG
METAR NSTU 282154Z 07006KT 12SM FEW017 SCT055 OVC100 27/23 A2995 RMK
 SLP142 T02700229=




000
SAZS31 NSTU 282059
MTRPPG
METAR NSTU 282053Z 08009KT 12SM FEW017 SCT065 OVC100 27/23 A2996 RMK
 SLP146 60002 8/48/ T02660227 51019=




000
SAZS31 NSTU 281957
MTRPPG
METAR NSTU 281950Z 07012KT 12SM FEW017 SCT040 OVC100 26/22 A2996 RMK
 SLP146 T02560224=




000
SAZS31 NSTU 281857
MTRPPG
METAR NSTU 281853Z 07012KT 12SM FEW017 SCT040 OVC110 25/23 A2993 RMK
 SHRAE33 SLP137 T02480227=




000
SAZS31 NSTU 281801
MTRPPG
METAR NSTU 281758Z 12016G21KT 11SM -SHRA SCT014TCU BKN040 OVC100
25/24 A2990 RMK TCU ALQDS SLP127 60006 8/82/ T02520237 10261 20252
52010=




    US Dept of Commerce
    National Oceanic and Atmospheric Administration
    National Weather Service
    1325 East West Highway
    Silver Spring, MD 20910
    Page Author: NWS Internet Services Team
Disclaimer
Information Quality
Credits
Glossary
Privacy Policy
Freedom of Information Act (FOIA)
About Us
Career Opportunities